sensor_id;sensor_type;location;lat;lon;timestamp;P1;durP1;ratioP1;P2;durP2;ratioP2
43070;SDS011;36278;47.952;21.714;2023-04-15T00:02:22;15.80;;;12.53;;
43070;SDS011;36278;47.952;21.714;2023-04-15T00:04:48;36.27;;;26.27;;
43070;SDS011;36278;47.952;21.714;2023-04-15T00:07:13;19.63;;;15.80;;
43070;SDS011;36278;47.952;21.714;2023-04-15T00:09:40;13.70;;;12.20;;
43070;SDS011;36278;47.952;21.714;2023-04-15T00:12:07;19.80;;;13.17;;
43070;SDS011;36278;47.952;21.714;2023-04-15T00:14:33;18.00;;;13.50;;
43070;SDS011;36278;47.952;21.714;2023-04-15T00:17:00;20.80;;;14.83;;
43070;SDS011;36278;47.952;21.714;2023-04-15T00:19:25;26.00;;;15.67;;
43070;SDS011;36278;47.952;21.714;2023-04-15T00:21:50;27.63;;;16.70;;
43070;SDS011;36278;47.952;21.714;2023-04-15T00:24:16;41.23;;;24.30;;
43070;SDS011;36278;47.952;21.714;2023-04-15T00:26:41;46.77;;;26.90;;
43070;SDS011;36278;47.952;21.714;2023-04-15T00:29:07;38.83;;;23.73;;
43070;SDS011;36278;47.952;21.714;2023-04-15T00:31:32;38.70;;;24.53;;
43070;SDS011;36278;47.952;21.714;2023-04-15T00:33:59;50.37;;;32.57;;
43070;SDS011;36278;47.952;21.714;2023-04-15T00:36:24;56.50;;;36.90;;
43070;SDS011;36278;47.952;21.714;2023-04-15T00:38:50;50.43;;;32.83;;
43070;SDS011;36278;47.952;21.714;2023-04-15T00:41:16;51.30;;;36.20;;
43070;SDS011;36278;47.952;21.714;2023-04-15T00:43:43;53.63;;;38.97;;
43070;SDS011;36278;47.952;21.714;2023-04-15T00:46:09;37.83;;;30.53;;
43070;SDS011;36278;47.952;21.714;2023-04-15T00:48:39;28.07;;;21.47;;
43070;SDS011;36278;47.952;21.714;2023-04-15T00:51:05;24.63;;;20.77;;
43070;SDS011;36278;47.952;21.714;2023-04-15T00:53:31;31.00;;;23.27;;
43070;SDS011;36278;47.952;21.714;2023-04-15T00:55:57;22.37;;;17.13;;
43070;SDS011;36278;47.952;21.714;2023-04-15T00:58:22;29.80;;;20.43;;
43070;SDS011;36278;47.952;21.714;2023-04-15T01:00:48;32.00;;;25.67;;
43070;SDS011;36278;47.952;21.714;2023-04-15T01:03:18;16.83;;;13.53;;
43070;SDS011;36278;47.952;21.714;2023-04-15T01:05:44;14.77;;;13.10;;
43070;SDS011;36278;47.952;21.714;2023-04-15T01:08:10;14.50;;;12.73;;
43070;SDS011;36278;47.952;21.714;2023-04-15T01:10:36;17.23;;;12.97;;
43070;SDS011;36278;47.952;21.714;2023-04-15T01:13:02;14.37;;;12.67;;
43070;SDS011;36278;47.952;21.714;2023-04-15T01:15:28;14.40;;;11.47;;
43070;SDS011;36278;47.952;21.714;2023-04-15T01:17:53;13.10;;;10.67;;
43070;SDS011;36278;47.952;21.714;2023-04-15T01:20:19;14.07;;;11.33;;
43070;SDS011;36278;47.952;21.714;2023-04-15T01:22:46;11.20;;;9.93;;
43070;SDS011;36278;47.952;21.714;2023-04-15T01:25:18;12.73;;;10.17;;
43070;SDS011;36278;47.952;21.714;2023-04-15T01:27:46;14.07;;;10.30;;
43070;SDS011;36278;47.952;21.714;2023-04-15T01:30:12;15.07;;;10.67;;
43070;SDS011;36278;47.952;21.714;2023-04-15T01:32:38;12.13;;;9.97;;
43070;SDS011;36278;47.952;21.714;2023-04-15T01:35:03;14.77;;;10.40;;
43070;SDS011;36278;47.952;21.714;2023-04-15T01:37:29;14.27;;;10.33;;
43070;SDS011;36278;47.952;21.714;2023-04-15T01:39:55;13.87;;;10.10;;
43070;SDS011;36278;47.952;21.714;2023-04-15T01:42:22;13.03;;;9.83;;
43070;SDS011;36278;47.952;21.714;2023-04-15T01:44:47;14.23;;;10.53;;
43070;SDS011;36278;47.952;21.714;2023-04-15T01:47:12;11.10;;;9.90;;
43070;SDS011;36278;47.952;21.714;2023-04-15T01:49:38;12.40;;;10.67;;
43070;SDS011;36278;47.952;21.714;2023-04-15T01:52:04;13.47;;;11.23;;
43070;SDS011;36278;47.952;21.714;2023-04-15T01:54:29;13.40;;;11.17;;
43070;SDS011;36278;47.952;21.714;2023-04-15T01:56:55;13.43;;;10.70;;
43070;SDS011;36278;47.952;21.714;2023-04-15T01:59:20;13.00;;;10.63;;
43070;SDS011;36278;47.952;21.714;2023-04-15T02:01:46;12.87;;;10.50;;
43070;SDS011;36278;47.952;21.714;2023-04-15T02:04:12;13.63;;;11.07;;
43070;SDS011;36278;47.952;21.714;2023-04-15T02:06:43;12.13;;;10.33;;
43070;SDS011;36278;47.952;21.714;2023-04-15T02:09:09;17.13;;;12.17;;
43070;SDS011;36278;47.952;21.714;2023-04-15T02:11:35;12.53;;;10.63;;
43070;SDS011;36278;47.952;21.714;2023-04-15T02:14:01;13.03;;;10.87;;
43070;SDS011;36278;47.952;21.714;2023-04-15T02:16:29;12.10;;;10.37;;
43070;SDS011;36278;47.952;21.714;2023-04-15T02:18:56;13.60;;;10.60;;
43070;SDS011;36278;47.952;21.714;2023-04-15T02:21:21;12.17;;;9.60;;
43070;SDS011;36278;47.952;21.714;2023-04-15T02:23:46;12.67;;;10.10;;
43070;SDS011;36278;47.952;21.714;2023-04-15T02:26:12;12.03;;;10.07;;
43070;SDS011;36278;47.952;21.714;2023-04-15T02:28:38;14.30;;;9.90;;
43070;SDS011;36278;47.952;21.714;2023-04-15T02:31:06;10.93;;;9.77;;
43070;SDS011;36278;47.952;21.714;2023-04-15T02:33:32;12.43;;;9.87;;
43070;SDS011;36278;47.952;21.714;2023-04-15T02:35:57;14.80;;;10.47;;
43070;SDS011;36278;47.952;21.714;2023-04-15T02:38:23;12.40;;;9.93;;
43070;SDS011;36278;47.952;21.714;2023-04-15T02:40:49;12.30;;;9.93;;
43070;SDS011;36278;47.952;21.714;2023-04-15T02:43:15;13.00;;;10.53;;
43070;SDS011;36278;47.952;21.714;2023-04-15T02:45:42;11.63;;;9.63;;
43070;SDS011;36278;47.952;21.714;2023-04-15T02:48:08;11.10;;;9.83;;
43070;SDS011;36278;47.952;21.714;2023-04-15T02:50:33;13.00;;;10.03;;
43070;SDS011;36278;47.952;21.714;2023-04-15T02:52:59;12.10;;;10.47;;
43070;SDS011;36278;47.952;21.714;2023-04-15T02:55:26;14.60;;;10.27;;
43070;SDS011;36278;47.952;21.714;2023-04-15T02:57:52;10.47;;;8.47;;
43070;SDS011;36278;47.952;21.714;2023-04-15T03:00:18;10.67;;;9.27;;
43070;SDS011;36278;47.952;21.714;2023-04-15T03:02:44;10.63;;;8.83;;
43070;SDS011;36278;47.952;21.714;2023-04-15T03:05:11;9.70;;;8.70;;
43070;SDS011;36278;47.952;21.714;2023-04-15T03:07:38;11.10;;;8.27;;
43070;SDS011;36278;47.952;21.714;2023-04-15T03:10:05;14.07;;;8.57;;
43070;SDS011;36278;47.952;21.714;2023-04-15T03:12:31;9.67;;;8.00;;
43070;SDS011;36278;47.952;21.714;2023-04-15T03:14:57;9.27;;;7.93;;
43070;SDS011;36278;47.952;21.714;2023-04-15T03:17:22;12.10;;;8.83;;
43070;SDS011;36278;47.952;21.714;2023-04-15T03:19:48;10.17;;;7.83;;
43070;SDS011;36278;47.952;21.714;2023-04-15T03:22:13;13.10;;;8.17;;
43070;SDS011;36278;47.952;21.714;2023-04-15T03:24:38;8.97;;;8.03;;
43070;SDS011;36278;47.952;21.714;2023-04-15T03:27:04;9.10;;;7.73;;
43070;SDS011;36278;47.952;21.714;2023-04-15T03:29:32;9.03;;;8.07;;
43070;SDS011;36278;47.952;21.714;2023-04-15T03:31:57;12.70;;;8.40;;
43070;SDS011;36278;47.952;21.714;2023-04-15T03:34:23;10.27;;;8.17;;
43070;SDS011;36278;47.952;21.714;2023-04-15T03:36:48;11.83;;;9.03;;
43070;SDS011;36278;47.952;21.714;2023-04-15T03:39:14;10.47;;;8.23;;
43070;SDS011;36278;47.952;21.714;2023-04-15T03:41:40;10.13;;;8.10;;
43070;SDS011;36278;47.952;21.714;2023-04-15T03:44:06;9.67;;;8.17;;
43070;SDS011;36278;47.952;21.714;2023-04-15T03:46:31;10.97;;;7.93;;
43070;SDS011;36278;47.952;21.714;2023-04-15T03:48:57;10.17;;;8.33;;
43070;SDS011;36278;47.952;21.714;2023-04-15T03:51:23;10.40;;;8.33;;
43070;SDS011;36278;47.952;21.714;2023-04-15T03:53:48;11.60;;;8.20;;
43070;SDS011;36278;47.952;21.714;2023-04-15T03:56:15;14.07;;;9.47;;
43070;SDS011;36278;47.952;21.714;2023-04-15T03:58:41;10.23;;;8.37;;
43070;SDS011;36278;47.952;21.714;2023-04-15T04:01:06;12.40;;;9.50;;
43070;SDS011;36278;47.952;21.714;2023-04-15T04:03:32;10.47;;;9.13;;
43070;SDS011;36278;47.952;21.714;2023-04-15T04:05:57;10.67;;;9.00;;
43070;SDS011;36278;47.952;21.714;2023-04-15T04:08:23;11.50;;;9.20;;
43070;SDS011;36278;47.952;21.714;2023-04-15T04:10:49;13.13;;;9.43;;
43070;SDS011;36278;47.952;21.714;2023-04-15T04:13:14;12.43;;;9.60;;
43070;SDS011;36278;47.952;21.714;2023-04-15T04:15:40;11.67;;;9.53;;
43070;SDS011;36278;47.952;21.714;2023-04-15T04:18:06;11.03;;;9.83;;
43070;SDS011;36278;47.952;21.714;2023-04-15T04:20:31;13.07;;;9.53;;
43070;SDS011;36278;47.952;21.714;2023-04-15T04:22:57;12.60;;;9.60;;
43070;SDS011;36278;47.952;21.714;2023-04-15T04:25:22;13.47;;;9.90;;
43070;SDS011;36278;47.952;21.714;2023-04-15T04:27:48;10.90;;;9.07;;
43070;SDS011;36278;47.952;21.714;2023-04-15T04:30:14;12.77;;;9.07;;
43070;SDS011;36278;47.952;21.714;2023-04-15T04:32:40;12.03;;;9.37;;
43070;SDS011;36278;47.952;21.714;2023-04-15T04:35:05;11.03;;;9.07;;
43070;SDS011;36278;47.952;21.714;2023-04-15T04:37:31;11.73;;;9.43;;
43070;SDS011;36278;47.952;21.714;2023-04-15T04:39:56;10.77;;;9.67;;
43070;SDS011;36278;47.952;21.714;2023-04-15T04:42:22;12.27;;;10.07;;
43070;SDS011;36278;47.952;21.714;2023-04-15T04:44:47;10.93;;;9.73;;
43070;SDS011;36278;47.952;21.714;2023-04-15T04:47:13;11.63;;;8.87;;
43070;SDS011;36278;47.952;21.714;2023-04-15T04:49:38;12.23;;;9.77;;
43070;SDS011;36278;47.952;21.714;2023-04-15T04:52:05;12.73;;;9.67;;
43070;SDS011;36278;47.952;21.714;2023-04-15T04:54:30;10.10;;;8.40;;
43070;SDS011;36278;47.952;21.714;2023-04-15T04:56:56;8.60;;;7.53;;
43070;SDS011;36278;47.952;21.714;2023-04-15T04:59:22;9.90;;;7.33;;
43070;SDS011;36278;47.952;21.714;2023-04-15T05:01:47;11.67;;;8.77;;
43070;SDS011;36278;47.952;21.714;2023-04-15T05:04:13;11.23;;;8.17;;
43070;SDS011;36278;47.952;21.714;2023-04-15T05:06:39;12.30;;;8.67;;
43070;SDS011;36278;47.952;21.714;2023-04-15T05:09:04;9.73;;;7.57;;
43070;SDS011;36278;47.952;21.714;2023-04-15T05:11:30;9.90;;;7.77;;
43070;SDS011;36278;47.952;21.714;2023-04-15T05:13:56;14.27;;;8.47;;
43070;SDS011;36278;47.952;21.714;2023-04-15T05:16:22;10.80;;;8.40;;
43070;SDS011;36278;47.952;21.714;2023-04-15T05:18:47;11.17;;;8.17;;
43070;SDS011;36278;47.952;21.714;2023-04-15T05:21:13;12.33;;;8.83;;
43070;SDS011;36278;47.952;21.714;2023-04-15T05:23:38;11.30;;;7.70;;
43070;SDS011;36278;47.952;21.714;2023-04-15T05:26:04;12.37;;;9.13;;
43070;SDS011;36278;47.952;21.714;2023-04-15T05:28:29;10.10;;;8.50;;
43070;SDS011;36278;47.952;21.714;2023-04-15T05:30:55;13.33;;;8.60;;
43070;SDS011;36278;47.952;21.714;2023-04-15T05:33:21;12.90;;;8.53;;
43070;SDS011;36278;47.952;21.714;2023-04-15T05:35:47;9.13;;;7.80;;
43070;SDS011;36278;47.952;21.714;2023-04-15T05:38:12;9.63;;;8.33;;
43070;SDS011;36278;47.952;21.714;2023-04-15T05:40:38;8.93;;;6.73;;
43070;SDS011;36278;47.952;21.714;2023-04-15T05:43:03;10.30;;;6.60;;
43070;SDS011;36278;47.952;21.714;2023-04-15T05:45:29;8.03;;;6.13;;
43070;SDS011;36278;47.952;21.714;2023-04-15T05:47:54;7.07;;;6.10;;
43070;SDS011;36278;47.952;21.714;2023-04-15T05:50:20;6.60;;;5.90;;
43070;SDS011;36278;47.952;21.714;2023-04-15T05:52:46;5.97;;;5.27;;
43070;SDS011;36278;47.952;21.714;2023-04-15T05:55:11;6.90;;;5.30;;
43070;SDS011;36278;47.952;21.714;2023-04-15T05:57:37;6.70;;;5.60;;
43070;SDS011;36278;47.952;21.714;2023-04-15T06:00:03;7.53;;;5.80;;
43070;SDS011;36278;47.952;21.714;2023-04-15T06:02:29;9.80;;;6.33;;
43070;SDS011;36278;47.952;21.714;2023-04-15T06:04:55;10.13;;;6.23;;
43070;SDS011;36278;47.952;21.714;2023-04-15T06:07:22;10.87;;;6.00;;
43070;SDS011;36278;47.952;21.714;2023-04-15T06:09:47;9.47;;;6.13;;
43070;SDS011;36278;47.952;21.714;2023-04-15T06:12:13;8.07;;;5.63;;
43070;SDS011;36278;47.952;21.714;2023-04-15T06:14:39;10.70;;;6.37;;
43070;SDS011;36278;47.952;21.714;2023-04-15T06:17:05;9.37;;;5.90;;
43070;SDS011;36278;47.952;21.714;2023-04-15T06:19:32;9.47;;;6.30;;
43070;SDS011;36278;47.952;21.714;2023-04-15T06:21:57;8.53;;;5.70;;
43070;SDS011;36278;47.952;21.714;2023-04-15T06:24:23;7.40;;;5.93;;
43070;SDS011;36278;47.952;21.714;2023-04-15T06:26:49;7.63;;;6.03;;
43070;SDS011;36278;47.952;21.714;2023-04-15T06:29:14;8.90;;;6.70;;
43070;SDS011;36278;47.952;21.714;2023-04-15T06:31:40;9.03;;;6.57;;
43070;SDS011;36278;47.952;21.714;2023-04-15T06:34:05;12.37;;;6.30;;
43070;SDS011;36278;47.952;21.714;2023-04-15T06:36:31;6.83;;;5.77;;
43070;SDS011;36278;47.952;21.714;2023-04-15T06:38:57;6.97;;;5.37;;
43070;SDS011;36278;47.952;21.714;2023-04-15T06:41:22;6.60;;;5.07;;
43070;SDS011;36278;47.952;21.714;2023-04-15T06:43:48;7.57;;;4.83;;
43070;SDS011;36278;47.952;21.714;2023-04-15T06:46:13;7.47;;;4.83;;
43070;SDS011;36278;47.952;21.714;2023-04-15T06:48:39;7.77;;;5.10;;
43070;SDS011;36278;47.952;21.714;2023-04-15T06:51:04;5.53;;;4.50;;
43070;SDS011;36278;47.952;21.714;2023-04-15T06:53:30;6.87;;;4.50;;
43070;SDS011;36278;47.952;21.714;2023-04-15T06:55:56;5.97;;;4.50;;
43070;SDS011;36278;47.952;21.714;2023-04-15T06:58:21;8.63;;;5.40;;
43070;SDS011;36278;47.952;21.714;2023-04-15T07:00:47;7.90;;;5.30;;
43070;SDS011;36278;47.952;21.714;2023-04-15T07:03:12;8.33;;;4.80;;
43070;SDS011;36278;47.952;21.714;2023-04-15T07:05:39;5.93;;;4.67;;
43070;SDS011;36278;47.952;21.714;2023-04-15T07:08:05;6.73;;;4.23;;
43070;SDS011;36278;47.952;21.714;2023-04-15T07:10:32;9.10;;;5.57;;
43070;SDS011;36278;47.952;21.714;2023-04-15T07:12:58;7.57;;;4.37;;
43070;SDS011;36278;47.952;21.714;2023-04-15T07:15:23;6.47;;;4.17;;
43070;SDS011;36278;47.952;21.714;2023-04-15T07:17:49;6.83;;;3.70;;
43070;SDS011;36278;47.952;21.714;2023-04-15T07:20:15;4.33;;;3.20;;
43070;SDS011;36278;47.952;21.714;2023-04-15T07:22:40;5.10;;;3.50;;
43070;SDS011;36278;47.952;21.714;2023-04-15T07:25:06;5.33;;;3.17;;
43070;SDS011;36278;47.952;21.714;2023-04-15T07:27:32;4.60;;;2.90;;
43070;SDS011;36278;47.952;21.714;2023-04-15T07:29:58;4.43;;;3.20;;
43070;SDS011;36278;47.952;21.714;2023-04-15T07:32:23;3.60;;;2.57;;
43070;SDS011;36278;47.952;21.714;2023-04-15T07:34:50;5.37;;;3.30;;
43070;SDS011;36278;47.952;21.714;2023-04-15T07:37:15;3.93;;;2.90;;
43070;SDS011;36278;47.952;21.714;2023-04-15T07:39:41;4.83;;;3.07;;
43070;SDS011;36278;47.952;21.714;2023-04-15T07:42:07;6.53;;;3.30;;
43070;SDS011;36278;47.952;21.714;2023-04-15T07:44:33;5.50;;;3.30;;
43070;SDS011;36278;47.952;21.714;2023-04-15T07:46:59;3.87;;;2.90;;
43070;SDS011;36278;47.952;21.714;2023-04-15T07:49:27;3.90;;;2.40;;
43070;SDS011;36278;47.952;21.714;2023-04-15T07:51:52;4.37;;;2.50;;
43070;SDS011;36278;47.952;21.714;2023-04-15T07:54:18;4.57;;;2.50;;
43070;SDS011;36278;47.952;21.714;2023-04-15T07:56:43;3.07;;;2.20;;
43070;SDS011;36278;47.952;21.714;2023-04-15T07:59:09;7.17;;;2.30;;
43070;SDS011;36278;47.952;21.714;2023-04-15T08:01:34;5.43;;;2.23;;
43070;SDS011;36278;47.952;21.714;2023-04-15T08:04:00;2.97;;;2.00;;
43070;SDS011;36278;47.952;21.714;2023-04-15T08:06:27;4.07;;;2.67;;
43070;SDS011;36278;47.952;21.714;2023-04-15T08:08:52;4.27;;;2.50;;
43070;SDS011;36278;47.952;21.714;2023-04-15T08:11:19;2.37;;;1.73;;
43070;SDS011;36278;47.952;21.714;2023-04-15T08:13:45;3.07;;;1.70;;
43070;SDS011;36278;47.952;21.714;2023-04-15T08:16:21;4.63;;;2.10;;
43070;SDS011;36278;47.952;21.714;2023-04-15T08:18:48;5.17;;;2.43;;
43070;SDS011;36278;47.952;21.714;2023-04-15T08:21:17;5.80;;;1.83;;
43070;SDS011;36278;47.952;21.714;2023-04-15T08:23:48;2.40;;;1.70;;
43070;SDS011;36278;47.952;21.714;2023-04-15T08:26:14;3.07;;;1.53;;
43070;SDS011;36278;47.952;21.714;2023-04-15T08:28:41;3.27;;;1.60;;
43070;SDS011;36278;47.952;21.714;2023-04-15T08:31:06;2.67;;;1.40;;
43070;SDS011;36278;47.952;21.714;2023-04-15T08:33:33;2.53;;;1.20;;
43070;SDS011;36278;47.952;21.714;2023-04-15T08:35:58;1.77;;;1.30;;
43070;SDS011;36278;47.952;21.714;2023-04-15T08:38:24;2.77;;;1.30;;
43070;SDS011;36278;47.952;21.714;2023-04-15T08:40:49;3.07;;;1.20;;
43070;SDS011;36278;47.952;21.714;2023-04-15T08:43:22;2.40;;;1.00;;
43070;SDS011;36278;47.952;21.714;2023-04-15T08:45:52;1.80;;;1.00;;
43070;SDS011;36278;47.952;21.714;2023-04-15T08:48:18;2.57;;;1.10;;
43070;SDS011;36278;47.952;21.714;2023-04-15T08:50:45;3.37;;;1.20;;
43070;SDS011;36278;47.952;21.714;2023-04-15T08:53:11;1.60;;;1.10;;
43070;SDS011;36278;47.952;21.714;2023-04-15T08:55:39;2.47;;;1.03;;
43070;SDS011;36278;47.952;21.714;2023-04-15T08:58:08;4.90;;;1.33;;
43070;SDS011;36278;47.952;21.714;2023-04-15T09:00:35;2.93;;;1.50;;
43070;SDS011;36278;47.952;21.714;2023-04-15T09:03:03;1.87;;;1.37;;
43070;SDS011;36278;47.952;21.714;2023-04-15T09:05:32;2.80;;;1.67;;
43070;SDS011;36278;47.952;21.714;2023-04-15T09:07:59;3.00;;;1.57;;
43070;SDS011;36278;47.952;21.714;2023-04-15T09:10:26;1.70;;;1.33;;
43070;SDS011;36278;47.952;21.714;2023-04-15T09:12:52;2.27;;;1.43;;
43070;SDS011;36278;47.952;21.714;2023-04-15T09:15:18;4.13;;;1.40;;
43070;SDS011;36278;47.952;21.714;2023-04-15T09:17:45;3.53;;;1.40;;
43070;SDS011;36278;47.952;21.714;2023-04-15T09:20:12;3.10;;;1.33;;
43070;SDS011;36278;47.952;21.714;2023-04-15T09:22:39;1.93;;;1.20;;
43070;SDS011;36278;47.952;21.714;2023-04-15T09:25:27;4.33;;;1.40;;
43070;SDS011;36278;47.952;21.714;2023-04-15T09:30:20;2.47;;;1.53;;
43070;SDS011;36278;47.952;21.714;2023-04-15T09:32:53;2.83;;;1.30;;
43070;SDS011;36278;47.952;21.714;2023-04-15T09:35:23;3.07;;;1.50;;
43070;SDS011;36278;47.952;21.714;2023-04-15T09:37:50;2.93;;;1.13;;
43070;SDS011;36278;47.952;21.714;2023-04-15T09:43:01;3.50;;;1.30;;
43070;SDS011;36278;47.952;21.714;2023-04-15T09:45:28;1.87;;;1.20;;
43070;SDS011;36278;47.952;21.714;2023-04-15T09:47:54;3.30;;;1.53;;
43070;SDS011;36278;47.952;21.714;2023-04-15T09:50:21;4.10;;;1.37;;
43070;SDS011;36278;47.952;21.714;2023-04-15T09:52:52;2.73;;;1.50;;
43070;SDS011;36278;47.952;21.714;2023-04-15T09:55:18;3.90;;;1.60;;
43070;SDS011;36278;47.952;21.714;2023-04-15T09:57:44;6.90;;;1.77;;
43070;SDS011;36278;47.952;21.714;2023-04-15T10:00:11;2.50;;;1.63;;
43070;SDS011;36278;47.952;21.714;2023-04-15T10:02:38;2.70;;;1.73;;
43070;SDS011;36278;47.952;21.714;2023-04-15T10:05:06;3.27;;;1.50;;
43070;SDS011;36278;47.952;21.714;2023-04-15T10:07:32;3.17;;;1.53;;
43070;SDS011;36278;47.952;21.714;2023-04-15T10:09:59;2.63;;;1.60;;
43070;SDS011;36278;47.952;21.714;2023-04-15T10:12:26;3.10;;;1.50;;
43070;SDS011;36278;47.952;21.714;2023-04-15T10:15:01;3.67;;;1.80;;
43070;SDS011;36278;47.952;21.714;2023-04-15T10:17:32;6.73;;;1.60;;
43070;SDS011;36278;47.952;21.714;2023-04-15T10:20:03;4.63;;;1.90;;
43070;SDS011;36278;47.952;21.714;2023-04-15T10:22:29;3.17;;;1.73;;
43070;SDS011;36278;47.952;21.714;2023-04-15T10:24:56;3.00;;;2.10;;
43070;SDS011;36278;47.952;21.714;2023-04-15T10:27:22;2.87;;;1.57;;
43070;SDS011;36278;47.952;21.714;2023-04-15T10:29:49;3.20;;;2.00;;
43070;SDS011;36278;47.952;21.714;2023-04-15T10:32:16;3.07;;;1.90;;
43070;SDS011;36278;47.952;21.714;2023-04-15T10:34:44;4.77;;;2.50;;
43070;SDS011;36278;47.952;21.714;2023-04-15T10:37:12;2.73;;;1.87;;
43070;SDS011;36278;47.952;21.714;2023-04-15T10:39:47;3.87;;;2.20;;
43070;SDS011;36278;47.952;21.714;2023-04-15T10:42:16;2.60;;;1.87;;
43070;SDS011;36278;47.952;21.714;2023-04-15T10:44:44;3.10;;;1.50;;
43070;SDS011;36278;47.952;21.714;2023-04-15T10:47:14;4.43;;;1.80;;
43070;SDS011;36278;47.952;21.714;2023-04-15T10:52:11;5.07;;;2.07;;
43070;SDS011;36278;47.952;21.714;2023-04-15T10:54:36;2.60;;;2.03;;
43070;SDS011;36278;47.952;21.714;2023-04-15T10:59:29;7.63;;;3.90;;
43070;SDS011;36278;47.952;21.714;2023-04-15T11:02:01;5.10;;;2.80;;
43070;SDS011;36278;47.952;21.714;2023-04-15T11:10:54;3.80;;;2.53;;
43070;SDS011;36278;47.952;21.714;2023-04-15T11:13:01;6.20;;;2.50;;
43070;SDS011;36278;47.952;21.714;2023-04-15T11:15:40;4.40;;;2.23;;
43070;SDS011;36278;47.952;21.714;2023-04-15T11:20:34;5.17;;;2.00;;
43070;SDS011;36278;47.952;21.714;2023-04-15T11:22:59;5.97;;;2.07;;
43070;SDS011;36278;47.952;21.714;2023-04-15T11:25:26;2.70;;;1.70;;
43070;SDS011;36278;47.952;21.714;2023-04-15T11:27:53;2.33;;;1.30;;
43070;SDS011;36278;47.952;21.714;2023-04-15T11:30:23;1.53;;;1.20;;
43070;SDS011;36278;47.952;21.714;2023-04-15T11:32:50;4.47;;;1.20;;
43070;SDS011;36278;47.952;21.714;2023-04-15T11:35:16;4.10;;;1.03;;
43070;SDS011;36278;47.952;21.714;2023-04-15T11:37:43;2.60;;;1.03;;
43070;SDS011;36278;47.952;21.714;2023-04-15T11:40:12;4.13;;;1.20;;
43070;SDS011;36278;47.952;21.714;2023-04-15T11:42:39;3.07;;;1.20;;
43070;SDS011;36278;47.952;21.714;2023-04-15T11:45:08;4.30;;;1.30;;
43070;SDS011;36278;47.952;21.714;2023-04-15T11:50:16;2.60;;;1.23;;
43070;SDS011;36278;47.952;21.714;2023-04-15T11:52:59;3.53;;;1.30;;
43070;SDS011;36278;47.952;21.714;2023-04-15T11:55:27;2.78;;;0.75;;
43070;SDS011;36278;47.952;21.714;2023-04-15T12:00:32;3.25;;;1.13;;
43070;SDS011;36278;47.952;21.714;2023-04-15T12:03:11;1.33;;;1.10;;
43070;SDS011;36278;47.952;21.714;2023-04-15T12:08:56;3.25;;;1.30;;
43070;SDS011;36278;47.952;21.714;2023-04-15T12:17:12;5.03;;;1.38;;
43070;SDS011;36278;47.952;21.714;2023-04-15T12:19:34;2.83;;;1.30;;
43070;SDS011;36278;47.952;21.714;2023-04-15T12:22:02;2.80;;;1.20;;
43070;SDS011;36278;47.952;21.714;2023-04-15T12:24:33;3.45;;;1.10;;
43070;SDS011;36278;47.952;21.714;2023-04-15T12:27:03;2.70;;;1.40;;
43070;SDS011;36278;47.952;21.714;2023-04-15T12:29:30;4.60;;;1.30;;
43070;SDS011;36278;47.952;21.714;2023-04-15T12:31:57;3.53;;;1.10;;
43070;SDS011;36278;47.952;21.714;2023-04-15T12:34:30;2.60;;;1.33;;
43070;SDS011;36278;47.952;21.714;2023-04-15T12:36:57;2.60;;;1.10;;
43070;SDS011;36278;47.952;21.714;2023-04-15T12:39:23;5.22;;;1.40;;
43070;SDS011;36278;47.952;21.714;2023-04-15T12:41:50;3.17;;;1.27;;
43070;SDS011;36278;47.952;21.714;2023-04-15T12:44:16;2.30;;;1.20;;
43070;SDS011;36278;47.952;21.714;2023-04-15T12:46:42;2.60;;;1.20;;
43070;SDS011;36278;47.952;21.714;2023-04-15T12:49:08;2.85;;;1.38;;
43070;SDS011;36278;47.952;21.714;2023-04-15T12:51:33;5.38;;;1.20;;
43070;SDS011;36278;47.952;21.714;2023-04-15T12:53:59;3.05;;;1.05;;
43070;SDS011;36278;47.952;21.714;2023-04-15T12:56:25;5.78;;;1.30;;
43070;SDS011;36278;47.952;21.714;2023-04-15T12:58:51;3.17;;;1.27;;
43070;SDS011;36278;47.952;21.714;2023-04-15T13:01:16;2.63;;;1.00;;
43070;SDS011;36278;47.952;21.714;2023-04-15T13:03:42;3.95;;;1.23;;
43070;SDS011;36278;47.952;21.714;2023-04-15T13:06:08;3.15;;;1.45;;
43070;SDS011;36278;47.952;21.714;2023-04-15T13:08:33;2.08;;;1.00;;
43070;SDS011;36278;47.952;21.714;2023-04-15T13:10:59;3.88;;;1.15;;
43070;SDS011;36278;47.952;21.714;2023-04-15T13:13:25;2.20;;;1.17;;
43070;SDS011;36278;47.952;21.714;2023-04-15T13:15:51;3.83;;;1.20;;
43070;SDS011;36278;47.952;21.714;2023-04-15T13:18:16;2.42;;;0.93;;
43070;SDS011;36278;47.952;21.714;2023-04-15T13:20:42;2.45;;;1.05;;
43070;SDS011;36278;47.952;21.714;2023-04-15T13:23:08;2.45;;;1.40;;
43070;SDS011;36278;47.952;21.714;2023-04-15T13:25:33;1.98;;;1.15;;
43070;SDS011;36278;47.952;21.714;2023-04-15T13:27:59;2.92;;;1.33;;
43070;SDS011;36278;47.952;21.714;2023-04-15T13:30:25;8.88;;;1.50;;
43070;SDS011;36278;47.952;21.714;2023-04-15T13:32:51;1.58;;;1.10;;
43070;SDS011;36278;47.952;21.714;2023-04-15T13:35:18;3.03;;;1.10;;
43070;SDS011;36278;47.952;21.714;2023-04-15T13:37:44;3.88;;;1.30;;
43070;SDS011;36278;47.952;21.714;2023-04-15T13:40:09;3.22;;;1.30;;
43070;SDS011;36278;47.952;21.714;2023-04-15T13:42:35;5.13;;;1.30;;
43070;SDS011;36278;47.952;21.714;2023-04-15T13:45:01;3.93;;;1.20;;
43070;SDS011;36278;47.952;21.714;2023-04-15T13:47:27;3.23;;;1.00;;
43070;SDS011;36278;47.952;21.714;2023-04-15T13:49:52;2.97;;;1.20;;
43070;SDS011;36278;47.952;21.714;2023-04-15T13:52:20;3.93;;;1.60;;
43070;SDS011;36278;47.952;21.714;2023-04-15T13:54:46;1.80;;;1.20;;
43070;SDS011;36278;47.952;21.714;2023-04-15T13:57:11;3.80;;;1.20;;
43070;SDS011;36278;47.952;21.714;2023-04-15T13:59:37;1.67;;;1.07;;
43070;SDS011;36278;47.952;21.714;2023-04-15T14:02:02;4.20;;;1.23;;
43070;SDS011;36278;47.952;21.714;2023-04-15T14:04:29;1.87;;;0.90;;
43070;SDS011;36278;47.952;21.714;2023-04-15T14:06:55;3.97;;;1.27;;
43070;SDS011;36278;47.952;21.714;2023-04-15T14:09:21;2.73;;;1.20;;
43070;SDS011;36278;47.952;21.714;2023-04-15T14:11:48;6.77;;;1.20;;
43070;SDS011;36278;47.952;21.714;2023-04-15T14:14:14;3.70;;;1.57;;
43070;SDS011;36278;47.952;21.714;2023-04-15T14:16:39;3.70;;;1.30;;
43070;SDS011;36278;47.952;21.714;2023-04-15T14:19:05;2.83;;;1.50;;
43070;SDS011;36278;47.952;21.714;2023-04-15T14:21:30;2.90;;;1.30;;
43070;SDS011;36278;47.952;21.714;2023-04-15T14:23:56;4.63;;;1.00;;
43070;SDS011;36278;47.952;21.714;2023-04-15T14:26:22;1.63;;;1.00;;
43070;SDS011;36278;47.952;21.714;2023-04-15T14:28:48;3.00;;;1.00;;
43070;SDS011;36278;47.952;21.714;2023-04-15T14:31:14;2.60;;;1.10;;
43070;SDS011;36278;47.952;21.714;2023-04-15T14:33:39;2.13;;;1.73;;
43070;SDS011;36278;47.952;21.714;2023-04-15T14:36:05;4.93;;;2.83;;
43070;SDS011;36278;47.952;21.714;2023-04-15T14:38:34;6.33;;;2.43;;
43070;SDS011;36278;47.952;21.714;2023-04-15T14:41:03;3.20;;;1.50;;
43070;SDS011;36278;47.952;21.714;2023-04-15T14:43:29;9.53;;;1.53;;
43070;SDS011;36278;47.952;21.714;2023-04-15T14:45:54;2.93;;;1.60;;
43070;SDS011;36278;47.952;21.714;2023-04-15T14:48:20;2.27;;;1.20;;
43070;SDS011;36278;47.952;21.714;2023-04-15T14:50:45;5.37;;;1.40;;
43070;SDS011;36278;47.952;21.714;2023-04-15T14:53:11;1.50;;;0.80;;
43070;SDS011;36278;47.952;21.714;2023-04-15T14:55:36;3.57;;;1.60;;
43070;SDS011;36278;47.952;21.714;2023-04-15T14:58:02;3.27;;;1.67;;